createdAt,value
2023-05-14T00:01:32.760Z,4.28
2023-05-14T00:04:01.454Z,3.47
2023-05-14T00:06:33.768Z,3.88
2023-05-14T00:09:04.947Z,4.18
2023-05-14T00:11:36.483Z,3.58
2023-05-14T00:14:12.301Z,5.72
2023-05-14T00:16:40.802Z,4.68
2023-05-14T00:19:11.377Z,3.15
2023-05-14T00:21:42.364Z,2.72
2023-05-14T00:24:10.920Z,3.10
2023-05-14T00:26:42.086Z,3.85
2023-05-14T00:29:11.466Z,3.70
2023-05-14T00:31:41.627Z,3.55
2023-05-14T00:34:12.899Z,3.65
2023-05-14T00:36:41.288Z,2.92
2023-05-14T00:39:09.934Z,3.50
2023-05-14T00:41:38.169Z,3.95
2023-05-14T00:44:06.466Z,4.45
2023-05-14T00:46:34.949Z,3.22
2023-05-14T00:49:03.739Z,3.15
2023-05-14T00:51:32.329Z,2.88
2023-05-14T00:54:01.319Z,2.65
2023-05-14T00:56:32.636Z,3.30
2023-05-14T00:59:01.452Z,3.70
2023-05-14T01:01:29.923Z,3.00
2023-05-14T01:03:59.017Z,3.30
2023-05-14T01:07:11.916Z,2.65
2023-05-14T01:09:54.437Z,1.85
2023-05-14T01:12:48.826Z,2.53
2023-05-14T01:15:31.138Z,3.47
2023-05-14T01:18:09.072Z,6.10
2023-05-14T01:20:40.318Z,3.90
2023-05-14T01:23:09.521Z,2.47
2023-05-14T01:25:38.454Z,2.60
2023-05-14T01:28:13.433Z,2.53
2023-05-14T01:30:52.569Z,2.63
2023-05-14T01:33:22.961Z,2.88
2023-05-14T01:35:53.967Z,2.28
2023-05-14T01:38:24.353Z,3.00
2023-05-14T01:40:54.657Z,4.30
2023-05-14T01:43:23.668Z,5.13
2023-05-14T01:45:52.046Z,4.55
2023-05-14T01:48:20.301Z,4.97
2023-05-14T01:50:48.687Z,4.25
2023-05-14T01:53:17.408Z,6.88
2023-05-14T01:55:45.652Z,4.70
2023-05-14T01:58:15.023Z,4.18
2023-05-14T02:00:43.459Z,3.22
2023-05-14T02:03:11.823Z,2.72
2023-05-14T02:05:40.734Z,4.45
2023-05-14T02:08:09.337Z,2.28
2023-05-14T02:10:37.637Z,4.00
2023-05-14T02:13:06.120Z,3.53
2023-05-14T02:15:34.529Z,4.18
2023-05-14T02:18:03.226Z,3.63
2023-05-14T02:20:31.790Z,3.95
2023-05-14T02:23:00.149Z,3.90
2023-05-14T02:25:28.566Z,3.50
2023-05-14T02:27:56.899Z,4.43
2023-05-14T02:30:25.286Z,2.22
2023-05-14T02:32:56.311Z,4.28
2023-05-14T02:35:25.921Z,3.30
2023-05-14T02:37:54.664Z,3.25
2023-05-14T02:40:23.259Z,3.28
2023-05-14T02:42:51.823Z,2.88
2023-05-14T02:45:20.362Z,3.60
2023-05-14T02:47:49.083Z,4.80
2023-05-14T02:50:17.388Z,4.15
2023-05-14T02:52:47.754Z,2.92
2023-05-14T02:55:16.065Z,2.92
2023-05-14T02:57:44.589Z,3.28
2023-05-14T03:00:13.486Z,3.58
2023-05-14T03:02:43.727Z,3.45
2023-05-14T03:05:15.103Z,2.53
2023-05-14T03:07:43.977Z,2.90
2023-05-14T03:10:12.786Z,2.97
2023-05-14T03:12:42.148Z,2.83
2023-05-14T03:15:11.091Z,3.65
2023-05-14T03:17:39.878Z,3.83
2023-05-14T03:20:08.706Z,3.08
2023-05-14T03:22:37.338Z,2.35
2023-05-14T03:25:06.560Z,2.55
2023-05-14T03:27:36.770Z,2.78
2023-05-14T03:30:06.069Z,2.47
2023-05-14T03:32:34.647Z,3.33
2023-05-14T03:35:03.083Z,1.90
2023-05-14T03:37:31.383Z,3.42
2023-05-14T03:40:00.074Z,3.13
2023-05-14T03:42:28.365Z,5.78
2023-05-14T03:44:59.653Z,4.40
2023-05-14T03:47:29.623Z,4.72
2023-05-14T03:50:01.553Z,3.75
2023-05-14T03:52:34.429Z,5.97
2023-05-14T03:55:04.799Z,4.07
2023-05-14T03:57:33.839Z,3.72
2023-05-14T04:00:08.342Z,3.70
2023-05-14T04:02:45.878Z,3.97
2023-05-14T04:05:17.224Z,3.30
2023-05-14T04:07:47.314Z,2.42
2023-05-14T04:10:16.383Z,2.50
2023-05-14T04:12:46.712Z,3.50
2023-05-14T04:15:16.285Z,2.70
2023-05-14T04:17:45.324Z,2.45
2023-05-14T04:20:14.817Z,2.00
2023-05-14T04:22:46.839Z,3.25
2023-05-14T04:25:18.814Z,2.38
2023-05-14T04:27:47.622Z,2.13
2023-05-14T04:30:16.698Z,2.58
2023-05-14T04:32:46.043Z,2.60
2023-05-14T04:35:18.652Z,1.95
2023-05-14T04:37:49.568Z,4.60
2023-05-14T04:40:25.663Z,2.42
2023-05-14T04:42:54.609Z,2.15
2023-05-14T04:45:23.484Z,2.58
2023-05-14T04:47:55.206Z,2.83
2023-05-14T04:50:25.785Z,2.15
2023-05-14T04:52:56.115Z,2.72
2023-05-14T04:55:25.190Z,1.52
2023-05-14T04:57:55.755Z,3.05
2023-05-14T05:00:30.960Z,2.75
2023-05-14T05:03:02.346Z,2.75
2023-05-14T05:05:37.034Z,1.75
2023-05-14T05:08:06.296Z,3.22
2023-05-14T05:10:39.060Z,2.13
2023-05-14T05:13:11.207Z,2.65
2023-05-14T05:15:42.632Z,2.78
2023-05-14T05:18:11.712Z,2.47
2023-05-14T05:20:43.039Z,2.80
2023-05-14T05:23:24.204Z,2.63
2023-05-14T05:25:56.067Z,3.92
2023-05-14T05:28:27.561Z,2.25
2023-05-14T05:30:56.742Z,2.33
2023-05-14T05:33:25.780Z,3.28
2023-05-14T05:35:54.548Z,2.88
2023-05-14T05:38:23.766Z,3.03
2023-05-14T05:40:53.062Z,1.85
2023-05-14T05:43:29.264Z,2.17
2023-05-14T05:45:58.842Z,2.60
2023-05-14T05:48:29.886Z,2.10
2023-05-14T05:51:00.139Z,3.00
2023-05-14T05:53:33.787Z,1.67
2023-05-14T05:56:06.330Z,3.10
2023-05-14T05:58:35.062Z,1.95
2023-05-14T06:01:05.031Z,2.88
2023-05-14T06:03:33.706Z,2.97
2023-05-14T06:06:03.700Z,3.42
2023-05-14T06:08:34.772Z,4.55
2023-05-14T06:11:05.151Z,4.95
2023-05-14T06:13:33.889Z,3.72
2023-05-14T06:16:02.609Z,5.53
2023-05-14T06:18:33.062Z,5.85
2023-05-14T06:21:01.850Z,4.05
2023-05-14T06:23:30.813Z,3.42
2023-05-14T06:25:59.406Z,2.47
2023-05-14T06:28:28.252Z,3.15
2023-05-14T06:30:58.850Z,3.00
2023-05-14T06:33:31.338Z,4.45
2023-05-14T06:36:05.734Z,2.80
2023-05-14T06:38:34.914Z,1.55
2023-05-14T06:41:03.786Z,3.40
2023-05-14T06:43:34.785Z,1.73
2023-05-14T06:46:03.150Z,11.07
2023-05-14T06:48:31.954Z,21.45
2023-05-14T06:51:01.233Z,36.63
2023-05-14T06:53:29.890Z,22.08
2023-05-14T06:55:59.066Z,25.63
2023-05-14T06:58:29.107Z,17.38
2023-05-14T07:00:59.473Z,15.13
2023-05-14T07:03:29.547Z,12.65
2023-05-14T07:08:51.667Z,9.73
2023-05-14T07:11:22.809Z,14.35
2023-05-14T07:13:51.792Z,6.13
2023-05-14T07:16:21.091Z,8.43
2023-05-14T07:18:49.669Z,12.77
2023-05-14T07:21:19.843Z,8.88
2023-05-14T07:23:48.780Z,7.82
2023-05-14T07:26:18.545Z,7.40
2023-05-14T07:28:48.493Z,5.72
2023-05-14T07:31:17.286Z,5.15
2023-05-14T07:33:56.206Z,5.47
2023-05-14T07:36:28.540Z,5.78
2023-05-14T07:41:56.944Z,6.32
2023-05-14T07:44:25.045Z,5.80
2023-05-14T07:46:54.631Z,5.80
2023-05-14T07:49:23.902Z,7.47
2023-05-14T07:51:52.748Z,8.27
2023-05-14T07:54:21.401Z,12.88
2023-05-14T07:56:50.074Z,7.90
2023-05-14T07:59:19.731Z,8.60
2023-05-14T08:24:03.197Z,8.75
2023-05-14T08:39:25.859Z,5.65
2023-05-14T08:54:39.318Z,7.72
2023-05-14T08:57:11.617Z,6.10
2023-05-14T08:59:52.955Z,15.43
2023-05-14T09:02:41.896Z,13.35
2023-05-14T09:08:44.605Z,4.47
2023-05-14T09:11:49.400Z,4.82
2023-05-14T09:14:55.995Z,3.97
2023-05-14T09:17:59.676Z,4.10
2023-05-14T09:21:10.501Z,3.65
2023-05-14T09:24:04.887Z,4.18
2023-05-14T09:26:36.373Z,3.03
2023-05-14T09:29:07.464Z,2.83
2023-05-14T09:31:37.693Z,3.50
2023-05-14T09:34:09.733Z,2.50
2023-05-14T09:36:41.245Z,3.95
2023-05-14T09:39:10.018Z,3.08
2023-05-14T09:41:42.147Z,2.90
2023-05-14T09:44:11.324Z,2.25
2023-05-14T09:46:39.814Z,2.70
2023-05-14T09:49:08.267Z,6.22
2023-05-14T09:51:38.006Z,3.63
2023-05-14T09:54:06.835Z,3.72
2023-05-14T09:56:35.797Z,3.83
2023-05-14T09:59:06.939Z,3.28
2023-05-14T10:01:36.677Z,4.07
2023-05-14T10:04:08.061Z,4.70
2023-05-14T10:06:42.738Z,9.10
2023-05-14T10:09:14.145Z,10.85
2023-05-14T10:11:45.543Z,9.93
2023-05-14T10:14:43.579Z,17.95
2023-05-14T10:19:58.782Z,7.35
2023-05-14T10:25:45.316Z,5.60
2023-05-14T10:28:14.615Z,6.82
2023-05-14T10:30:50.200Z,5.57
2023-05-14T10:33:19.963Z,10.82
2023-05-14T10:36:08.119Z,30.13
2023-05-14T10:38:38.019Z,21.45
2023-05-14T10:41:12.629Z,13.68
2023-05-14T10:43:42.461Z,11.45
2023-05-14T10:46:18.274Z,10.35
2023-05-14T10:48:49.267Z,10.20
2023-05-14T10:51:21.178Z,7.55
2023-05-14T10:53:50.006Z,7.68
2023-05-14T10:56:22.540Z,4.45
2023-05-14T10:58:59.039Z,4.68
2023-05-14T11:01:29.483Z,5.53
2023-05-14T11:04:04.552Z,7.40
2023-05-14T11:06:53.614Z,6.53
2023-05-14T11:09:31.894Z,8.98
2023-05-14T11:12:21.821Z,8.07
2023-05-14T11:15:33.305Z,7.47
2023-05-14T11:18:55.156Z,8.20
2023-05-14T11:21:31.111Z,8.30
2023-05-14T11:24:18.685Z,9.68
2023-05-14T11:26:57.126Z,6.75
2023-05-14T11:29:38.596Z,8.07
2023-05-14T11:32:53.988Z,3.72
2023-05-14T11:35:36.436Z,6.22
2023-05-14T11:40:21.303Z,7.63
2023-05-14T11:41:37.769Z,5.45
2023-05-14T11:44:09.899Z,5.32
2023-05-14T11:46:58.079Z,3.25
2023-05-14T11:49:36.480Z,4.40
2023-05-14T11:52:14.965Z,6.45
2023-05-14T11:54:54.365Z,7.15
2023-05-14T11:57:28.222Z,6.25
2023-05-14T12:00:27.840Z,8.20
2023-05-14T12:03:30.152Z,5.20
2023-05-14T12:06:19.762Z,6.53
2023-05-14T12:10:08.799Z,7.95
2023-05-14T12:12:55.439Z,5.68
2023-05-14T12:15:30.626Z,4.18
2023-05-14T12:18:02.044Z,4.60
2023-05-14T12:20:47.935Z,5.13
2023-05-14T12:23:34.370Z,6.35
2023-05-14T12:26:15.624Z,18.83
2023-05-14T12:28:51.832Z,18.02
2023-05-14T12:31:36.233Z,41.33
2023-05-14T12:37:22.896Z,37.50
2023-05-14T12:40:24.742Z,28.13
2023-05-14T12:43:04.805Z,20.42
2023-05-14T12:45:40.684Z,13.13
2023-05-14T12:48:10.879Z,13.98
2023-05-14T12:50:53.662Z,7.38
2023-05-14T12:53:27.007Z,7.82
2023-05-14T12:56:06.950Z,4.75
2023-05-14T12:58:38.491Z,7.68
2023-05-14T13:01:18.294Z,4.28
2023-05-14T13:03:58.231Z,4.78
2023-05-14T13:06:34.441Z,4.57
2023-05-14T13:09:09.109Z,4.40
2023-05-14T13:11:39.914Z,3.97
2023-05-14T13:14:11.135Z,3.92
2023-05-14T13:16:43.131Z,3.60
2023-05-14T13:19:14.919Z,4.38
2023-05-14T13:21:43.950Z,3.35
2023-05-14T13:24:17.722Z,4.93
2023-05-14T13:26:55.013Z,4.90
2023-05-14T13:29:27.990Z,4.30
2023-05-14T13:32:09.968Z,5.35
2023-05-14T13:34:45.385Z,5.68
2023-05-14T13:37:46.240Z,10.50
2023-05-14T13:40:24.709Z,8.00
2023-05-14T13:43:10.847Z,10.70
2023-05-14T13:45:49.257Z,15.35
2023-05-14T13:48:25.422Z,10.93
2023-05-14T13:50:59.258Z,10.43
2023-05-14T13:53:43.939Z,8.25
2023-05-14T13:56:12.848Z,15.65
2023-05-14T13:58:43.892Z,11.30
2023-05-14T14:01:30.986Z,8.50
2023-05-14T14:04:07.152Z,9.85
2023-05-14T14:06:36.751Z,8.13
2023-05-14T14:09:11.326Z,5.47
2023-05-14T14:11:42.354Z,4.45
2023-05-14T14:14:44.262Z,4.72
2023-05-14T14:17:18.148Z,5.80
2023-05-14T14:19:46.954Z,5.95
2023-05-14T14:22:28.956Z,6.35
2023-05-14T14:25:08.524Z,6.60
2023-05-14T14:27:43.977Z,3.95
2023-05-14T14:30:28.032Z,4.95
2023-05-14T14:33:06.228Z,4.45
2023-05-14T14:35:49.421Z,7.72
2023-05-14T14:38:31.116Z,5.97
2023-05-14T14:41:00.358Z,4.78
2023-05-14T14:43:51.639Z,4.60
2023-05-14T14:46:25.645Z,4.20
2023-05-14T14:49:04.374Z,4.32
2023-05-14T14:51:38.720Z,4.20
2023-05-14T14:54:08.546Z,4.57
2023-05-14T14:56:38.598Z,5.32
2023-05-14T14:59:10.094Z,6.82
2023-05-14T15:01:52.844Z,6.18
2023-05-14T15:04:27.345Z,5.65
2023-05-14T15:07:02.067Z,5.10
2023-05-14T15:09:36.878Z,4.45
2023-05-14T15:12:15.086Z,5.43
2023-05-14T15:14:53.744Z,6.43
2023-05-14T15:17:29.195Z,4.50
2023-05-14T15:20:06.306Z,5.22
2023-05-14T15:22:38.624Z,5.78
2023-05-14T15:25:20.359Z,8.05
2023-05-14T15:27:57.621Z,15.95
2023-05-14T15:30:30.635Z,19.33
2023-05-14T15:33:08.869Z,16.65
2023-05-14T15:35:51.352Z,13.73
2023-05-14T15:38:28.405Z,10.13
2023-05-14T15:41:08.176Z,10.05
2023-05-14T15:43:48.792Z,16.05
2023-05-14T15:46:59.457Z,10.13
2023-05-14T15:49:37.148Z,8.25
2023-05-14T15:52:16.045Z,7.18
2023-05-14T15:54:59.829Z,5.07
2023-05-14T15:57:35.241Z,6.72
2023-05-14T16:00:18.943Z,6.15
2023-05-14T16:02:47.649Z,5.15
2023-05-14T16:05:17.638Z,5.40
2023-05-14T16:07:51.430Z,4.53
2023-05-14T16:10:26.328Z,4.32
2023-05-14T16:12:58.926Z,2.60
2023-05-14T16:15:29.322Z,3.15
2023-05-14T16:17:58.753Z,4.03
2023-05-14T16:20:29.931Z,3.40
2023-05-14T16:23:01.034Z,2.67
2023-05-14T16:25:33.005Z,3.35
2023-05-14T16:28:02.224Z,3.92
2023-05-14T16:30:39.489Z,2.80
2023-05-14T16:33:08.225Z,2.60
2023-05-14T16:35:41.684Z,7.45
2023-05-14T16:38:16.034Z,8.90
2023-05-14T16:40:45.318Z,9.45
2023-05-14T16:43:22.299Z,11.00
2023-05-14T16:45:57.723Z,9.00
2023-05-14T16:48:28.138Z,7.05
2023-05-14T16:51:04.154Z,7.63
2023-05-14T16:53:33.053Z,5.38
2023-05-14T16:56:10.171Z,4.85
2023-05-14T16:58:42.423Z,3.78
2023-05-14T17:01:17.299Z,3.40
2023-05-14T17:03:53.173Z,3.85
2023-05-14T17:06:29.797Z,3.55
2023-05-14T17:09:01.453Z,2.65
2023-05-14T17:11:30.258Z,4.03
2023-05-14T17:13:59.100Z,5.85
2023-05-14T17:16:30.962Z,7.30
2023-05-14T17:19:05.596Z,6.88
2023-05-14T17:21:36.968Z,5.93
2023-05-14T17:25:10.192Z,4.85
2023-05-14T17:27:47.060Z,4.63
2023-05-14T17:30:25.537Z,4.25
2023-05-14T17:32:56.544Z,5.13
2023-05-14T17:35:31.515Z,4.88
2023-05-14T17:38:01.079Z,5.30
2023-05-14T17:40:34.315Z,5.25
2023-05-14T17:43:10.192Z,5.82
2023-05-14T17:45:53.929Z,5.63
2023-05-14T17:51:00.342Z,7.00
2023-05-14T17:53:45.677Z,10.90
2023-05-14T17:56:23.238Z,5.00
2023-05-14T17:59:06.373Z,12.52
2023-05-14T18:01:41.156Z,4.97
2023-05-14T18:04:13.195Z,4.95
2023-05-14T18:06:52.084Z,4.63
2023-05-14T18:09:36.741Z,6.05
2023-05-14T18:12:13.870Z,4.38
2023-05-14T18:14:50.321Z,6.80
2023-05-14T18:17:30.471Z,5.97
2023-05-14T18:20:14.037Z,9.32
2023-05-14T18:25:50.944Z,18.20
2023-05-14T18:28:21.826Z,15.05
2023-05-14T18:31:06.126Z,9.98
2023-05-14T18:33:53.005Z,9.10
2023-05-14T18:36:35.443Z,7.32
2023-05-14T18:39:15.718Z,7.75
2023-05-14T18:41:59.730Z,6.85
2023-05-14T18:44:45.651Z,6.18
2023-05-14T18:48:07.421Z,6.22
2023-05-14T18:50:45.258Z,4.72
2023-05-14T18:53:21.005Z,7.30
2023-05-14T18:56:00.687Z,7.53
2023-05-14T18:58:35.951Z,8.90
2023-05-14T19:01:27.107Z,6.78
2023-05-14T19:07:58.525Z,5.55
2023-05-14T19:10:30.173Z,6.90
2023-05-14T19:13:00.310Z,36.05
2023-05-14T19:15:34.444Z,43.28
2023-05-14T19:18:13.324Z,40.80
2023-05-14T19:20:45.811Z,40.30
2023-05-14T19:23:14.873Z,24.33
2023-05-14T19:25:51.452Z,17.60
2023-05-14T19:28:28.753Z,13.20
2023-05-14T19:31:17.541Z,11.77
2023-05-14T19:33:48.605Z,11.80
2023-05-14T19:36:22.787Z,12.85
2023-05-14T19:39:00.374Z,14.60
2023-05-14T19:41:58.607Z,15.75
2023-05-14T19:47:24.361Z,13.90
2023-05-14T19:50:06.056Z,14.40
2023-05-14T19:52:47.499Z,13.13
2023-05-14T19:55:21.325Z,11.57
2023-05-14T19:58:04.480Z,12.43
2023-05-14T20:00:44.890Z,12.13
2023-05-14T20:03:22.111Z,11.52
2023-05-14T20:05:57.659Z,7.55
2023-05-14T20:08:31.233Z,5.65
2023-05-14T20:11:05.382Z,9.00
2023-05-14T20:13:41.465Z,8.15
2023-05-14T20:16:13.432Z,9.82
2023-05-14T20:18:45.571Z,6.82
2023-05-14T20:21:22.466Z,6.47
2023-05-14T20:24:03.159Z,5.38
2023-05-14T20:26:37.701Z,5.68
2023-05-14T20:33:32.614Z,7.35
2023-05-14T20:36:09.410Z,7.45
2023-05-14T20:38:53.530Z,7.40
2023-05-14T20:41:35.377Z,7.53
2023-05-14T20:44:13.784Z,8.35
2023-05-14T20:46:50.272Z,7.20
2023-05-14T20:49:40.375Z,9.27
2023-05-14T20:52:23.120Z,5.15
2023-05-14T20:55:02.006Z,6.38
2023-05-14T20:57:46.707Z,7.55
2023-05-14T21:00:20.081Z,6.55
2023-05-14T21:03:01.811Z,7.63
2023-05-14T21:05:36.251Z,5.88
2023-05-14T21:08:09.876Z,6.38
2023-05-14T21:10:48.159Z,6.15
2023-05-14T21:13:17.860Z,7.65
2023-05-14T21:15:49.607Z,6.82
2023-05-14T21:18:59.248Z,5.55
2023-05-14T21:21:33.854Z,4.30
2023-05-14T21:24:09.320Z,5.25
2023-05-14T21:26:54.177Z,5.72
2023-05-14T21:29:26.801Z,5.07
2023-05-14T21:32:12.169Z,4.60
2023-05-14T21:34:52.240Z,7.15
2023-05-14T21:37:33.667Z,5.45
2023-05-14T21:40:28.142Z,7.05
2023-05-14T21:46:05.572Z,8.73
2023-05-14T21:48:46.685Z,10.15
2023-05-14T21:51:29.320Z,7.22
2023-05-14T21:54:09.286Z,8.05
2023-05-14T21:56:57.196Z,9.75
2023-05-14T21:59:41.014Z,7.45
2023-05-14T22:04:52.608Z,6.53
2023-05-14T22:07:24.379Z,6.22
2023-05-14T22:09:55.135Z,6.43
2023-05-14T22:12:27.151Z,8.90
2023-05-14T22:15:04.563Z,5.55
2023-05-14T22:17:36.507Z,6.22
2023-05-14T22:20:10.456Z,7.82
2023-05-14T22:22:52.682Z,5.80
2023-05-14T22:25:26.696Z,7.57
2023-05-14T22:27:57.911Z,4.72
2023-05-14T22:30:34.110Z,4.78
2023-05-14T22:33:10.929Z,6.45
2023-05-14T22:35:43.686Z,7.05
2023-05-14T22:38:23.558Z,7.97
2023-05-14T22:40:53.112Z,7.60
2023-05-14T22:43:24.445Z,5.30
2023-05-14T22:45:58.644Z,5.57
2023-05-14T22:48:28.251Z,6.85
2023-05-14T22:50:57.498Z,6.22
2023-05-14T22:53:30.149Z,7.90
2023-05-14T22:56:02.136Z,6.65
2023-05-14T22:58:33.359Z,7.10
2023-05-14T23:01:04.651Z,6.03
2023-05-14T23:03:35.001Z,6.68
2023-05-14T23:06:03.766Z,6.95
2023-05-14T23:08:36.323Z,4.07
2023-05-14T23:11:05.030Z,4.75
2023-05-14T23:13:36.522Z,4.18
2023-05-14T23:16:09.417Z,4.22
2023-05-14T23:18:38.565Z,4.25
2023-05-14T23:21:10.419Z,8.05
2023-05-14T23:23:40.649Z,12.20
2023-05-14T23:26:09.268Z,14.13
2023-05-14T23:28:37.654Z,12.93
2023-05-14T23:31:07.567Z,9.57
2023-05-14T23:33:40.383Z,9.55
2023-05-14T23:36:10.022Z,8.43
2023-05-14T23:38:44.087Z,5.50
2023-05-14T23:41:20.844Z,8.98
2023-05-14T23:43:56.056Z,6.43
2023-05-14T23:46:26.618Z,5.85
2023-05-14T23:49:01.338Z,4.20
2023-05-14T23:51:32.300Z,4.47
2023-05-14T23:54:05.717Z,4.93
2023-05-14T23:56:41.631Z,6.70
2023-05-14T23:59:18.902Z,6.60
